Cottage Grove, OR

5:19 PM PST on December 21, 2014 (GMT -0800)
Cottage Grove--West, milepost 2 | Change Station
CLOSE
Current Station
Personal Weather Station
Location: Cottage Grove, OR
Elevation: 683 ft
Nearby Weather Stations
Active Advisory: Flood Warning, Areal Flood Watch Active Notice: Record Report

Elev 683 ft 43.80 °N, 123.10 °W | Updated 9 minutes ago

Overcast
Overcast
53.0 °F
Feels Like 53.0 °F
N
0.0
Wind Variable Wind from WNW
Gusts 1.0 mph

Today
High -- | Low -- °F
--% Chance of Precip.
Yesterday
High -- | Low -- °F
Precip. -- in
7:42 AM 4:38 PM
Waning Crescent, 0% visible
Pressure 30.19 in
Visibility 9.0 miles
Clouds Few 1600 ft
Overcast 2800 ft
Dew Point 53 °F
Humidity 100%
Rainfall 0.09 in
Snow Depth Not available.
UV 0 out of 12
Pollen .50 out of 12
Air Quality Not available.
Flu Activity Not available.
METAR KEUG 220054Z 21006KT 9SM -RA FEW016 OVC028 12/11 A3019 RMK AO2 RAB43DZB44E50 SLP222 P0000 T01170106 $

More Conditions Fewer Conditions

Pressure 30.19 in
Visibility 9.0 miles
Clouds Few 1600 ft
Overcast 2800 ft
Dew Point 53 °F
Humidity 100%
Rainfall 0.09 in
Snow Depth Not available.
UV 0 out of 12
Pollen .50 out of 12
Air Quality Not available.
Flu Activity Not available.
METAR KEUG 220054Z 21006KT 9SM -RA FEW016 OVC028 12/11 A3019 RMK AO2 RAB43DZB44E50 SLP222 P0000 T01170106 $

More Conditions Fewer Conditions

10-Day Weather Forecast

Almanac

Astronomy

Dec. 21, 2014 Rise Set
Actual Time
Civil Twilight
Nautical Twilight
Astronomical Twilight
Moon
Length of Visible Light
Length of Day
Tomorrow will be .
, % of the Moon is Illuminated

Today's Extremes

State Highs State Lows

Community

WunderPhotos

Upload Photos

1,779,511 photos uploaded!

WunderBlogs® & News

Nearby

Air Quality

  Air Quality AQ Index Pollutant
Not available.

Snow Depth

Station Depth Elevation

Earthquake Activity

City Distance Mag. Time & Date
Minimum magnitude displayed is 2.5.

Coastal Water Temperatures

Place Temperature

Nearby Weather Stations